sensor_id;sensor_type;location;lat;lon;timestamp;temperature;humidity
33269;DHT22;19640;50.944;5.260;2023-08-24T00:00:41;18.70;99.90
33269;DHT22;19640;50.944;5.260;2023-08-24T00:03:07;18.80;99.90
33269;DHT22;19640;50.944;5.260;2023-08-24T00:05:37;18.80;99.90
33269;DHT22;19640;50.944;5.260;2023-08-24T00:08:11;18.90;99.90
33269;DHT22;19640;50.944;5.260;2023-08-24T00:10:37;18.90;99.90
33269;DHT22;19640;50.944;5.260;2023-08-24T00:13:03;18.90;99.90
33269;DHT22;19640;50.944;5.260;2023-08-24T00:15:29;19.00;99.90
33269;DHT22;19640;50.944;5.260;2023-08-24T00:17:56;19.10;99.90
33269;DHT22;19640;50.944;5.260;2023-08-24T00:20:22;19.20;99.90
33269;DHT22;19640;50.944;5.260;2023-08-24T00:22:48;19.30;99.90
33269;DHT22;19640;50.944;5.260;2023-08-24T00:25:14;19.20;99.90
33269;DHT22;19640;50.944;5.260;2023-08-24T00:27:40;19.30;99.90
33269;DHT22;19640;50.944;5.260;2023-08-24T00:30:07;19.40;99.90
33269;DHT22;19640;50.944;5.260;2023-08-24T00:32:34;19.40;99.90
33269;DHT22;19640;50.944;5.260;2023-08-24T00:35:04;19.30;99.90
33269;DHT22;19640;50.944;5.260;2023-08-24T00:37:32;19.40;99.90
33269;DHT22;19640;50.944;5.260;2023-08-24T00:40:00;19.40;99.90
33269;DHT22;19640;50.944;5.260;2023-08-24T00:42:28;19.30;99.90
33269;DHT22;19640;50.944;5.260;2023-08-24T00:44:54;19.10;99.90
33269;DHT22;19640;50.944;5.260;2023-08-24T00:47:20;19.10;99.90
33269;DHT22;19640;50.944;5.260;2023-08-24T00:49:46;19.20;99.90
33269;DHT22;19640;50.944;5.260;2023-08-24T00:52:12;19.20;99.90
33269;DHT22;19640;50.944;5.260;2023-08-24T00:54:39;19.30;99.90
33269;DHT22;19640;50.944;5.260;2023-08-24T00:57:06;19.20;99.90
33269;DHT22;19640;50.944;5.260;2023-08-24T00:59:33;19.30;99.90
33269;DHT22;19640;50.944;5.260;2023-08-24T01:01:59;19.30;99.90
33269;DHT22;19640;50.944;5.260;2023-08-24T01:04:25;19.10;99.90
33269;DHT22;19640;50.944;5.260;2023-08-24T01:06:51;18.90;99.90
33269;DHT22;19640;50.944;5.260;2023-08-24T01:09:18;19.00;99.90
33269;DHT22;19640;50.944;5.260;2023-08-24T01:12:47;19.00;99.90
33269;DHT22;19640;50.944;5.260;2023-08-24T01:17:22;18.90;99.90
33269;DHT22;19640;50.944;5.260;2023-08-24T01:19:49;18.90;99.90
33269;DHT22;19640;50.944;5.260;2023-08-24T01:27:32;19.00;99.90
33269;DHT22;19640;50.944;5.260;2023-08-24T01:30:01;19.10;99.90
33269;DHT22;19640;50.944;5.260;2023-08-24T01:32:30;19.20;99.90
33269;DHT22;19640;50.944;5.260;2023-08-24T01:34:57;19.30;99.90
33269;DHT22;19640;50.944;5.260;2023-08-24T01:37:22;19.20;99.90
33269;DHT22;19640;50.944;5.260;2023-08-24T01:40:06;19.20;99.90
33269;DHT22;19640;50.944;5.260;2023-08-24T01:45:08;19.30;99.90
33269;DHT22;19640;50.944;5.260;2023-08-24T01:47:35;19.30;99.90
33269;DHT22;19640;50.944;5.260;2023-08-24T01:50:03;19.40;99.90
33269;DHT22;19640;50.944;5.260;2023-08-24T01:52:29;19.30;99.90
33269;DHT22;19640;50.944;5.260;2023-08-24T01:54:55;19.30;99.90
33269;DHT22;19640;50.944;5.260;2023-08-24T01:57:21;19.40;99.90
33269;DHT22;19640;50.944;5.260;2023-08-24T01:59:46;19.40;99.90
33269;DHT22;19640;50.944;5.260;2023-08-24T02:02:12;19.50;99.90
33269;DHT22;19640;50.944;5.260;2023-08-24T02:04:38;19.50;99.90
33269;DHT22;19640;50.944;5.260;2023-08-24T02:07:03;19.60;99.90
33269;DHT22;19640;50.944;5.260;2023-08-24T02:09:29;19.60;99.90
33269;DHT22;19640;50.944;5.260;2023-08-24T02:11:56;19.60;99.90
33269;DHT22;19640;50.944;5.260;2023-08-24T02:14:22;19.70;99.90
33269;DHT22;19640;50.944;5.260;2023-08-24T02:16:47;19.70;99.90
33269;DHT22;19640;50.944;5.260;2023-08-24T02:19:13;19.70;99.90
33269;DHT22;19640;50.944;5.260;2023-08-24T02:21:39;19.70;99.90
33269;DHT22;19640;50.944;5.260;2023-08-24T02:24:06;19.80;99.90
33269;DHT22;19640;50.944;5.260;2023-08-24T02:26:32;19.80;99.90
33269;DHT22;19640;50.944;5.260;2023-08-24T02:28:59;19.80;99.90
33269;DHT22;19640;50.944;5.260;2023-08-24T02:31:24;19.80;99.90
33269;DHT22;19640;50.944;5.260;2023-08-24T02:33:50;19.80;99.90
33269;DHT22;19640;50.944;5.260;2023-08-24T02:36:16;19.90;99.90
33269;DHT22;19640;50.944;5.260;2023-08-24T02:38:42;19.90;99.90
33269;DHT22;19640;50.944;5.260;2023-08-24T02:41:08;19.80;99.90
33269;DHT22;19640;50.944;5.260;2023-08-24T02:43:34;19.80;99.90
33269;DHT22;19640;50.944;5.260;2023-08-24T02:46:01;19.80;99.90
33269;DHT22;19640;50.944;5.260;2023-08-24T02:48:29;19.70;99.90
33269;DHT22;19640;50.944;5.260;2023-08-24T02:50:56;19.50;99.90
33269;DHT22;19640;50.944;5.260;2023-08-24T02:53:22;19.40;99.90
33269;DHT22;19640;50.944;5.260;2023-08-24T02:55:48;19.50;99.90
33269;DHT22;19640;50.944;5.260;2023-08-24T02:58:13;19.50;99.90
33269;DHT22;19640;50.944;5.260;2023-08-24T03:00:39;19.20;99.90
33269;DHT22;19640;50.944;5.260;2023-08-24T03:03:05;18.80;99.90
33269;DHT22;19640;50.944;5.260;2023-08-24T03:05:31;18.60;99.90
33269;DHT22;19640;50.944;5.260;2023-08-24T03:07:58;18.50;99.90
33269;DHT22;19640;50.944;5.260;2023-08-24T03:10:24;18.50;99.90
33269;DHT22;19640;50.944;5.260;2023-08-24T03:12:49;18.60;99.90
33269;DHT22;19640;50.944;5.260;2023-08-24T03:15:15;18.70;99.90
33269;DHT22;19640;50.944;5.260;2023-08-24T03:17:42;18.60;99.90
33269;DHT22;19640;50.944;5.260;2023-08-24T03:20:08;18.60;99.90
33269;DHT22;19640;50.944;5.260;2023-08-24T03:22:34;18.70;99.90
33269;DHT22;19640;50.944;5.260;2023-08-24T03:25:00;18.70;99.90
33269;DHT22;19640;50.944;5.260;2023-08-24T03:27:26;18.80;99.90
33269;DHT22;19640;50.944;5.260;2023-08-24T03:29:54;18.90;99.90
33269;DHT22;19640;50.944;5.260;2023-08-24T03:32:20;18.90;99.90
33269;DHT22;19640;50.944;5.260;2023-08-24T03:34:45;19.00;99.90
33269;DHT22;19640;50.944;5.260;2023-08-24T03:37:11;19.00;99.90
33269;DHT22;19640;50.944;5.260;2023-08-24T03:39:39;19.10;99.90
33269;DHT22;19640;50.944;5.260;2023-08-24T03:42:05;19.10;99.90
33269;DHT22;19640;50.944;5.260;2023-08-24T03:44:30;19.10;99.90
33269;DHT22;19640;50.944;5.260;2023-08-24T03:46:56;19.10;99.90
33269;DHT22;19640;50.944;5.260;2023-08-24T03:49:22;19.20;99.90
33269;DHT22;19640;50.944;5.260;2023-08-24T03:51:48;19.30;99.90
33269;DHT22;19640;50.944;5.260;2023-08-24T03:54:14;19.40;99.90
33269;DHT22;19640;50.944;5.260;2023-08-24T03:56:39;19.10;99.90
33269;DHT22;19640;50.944;5.260;2023-08-24T03:59:05;19.00;99.90
33269;DHT22;19640;50.944;5.260;2023-08-24T04:01:30;18.90;99.90
33269;DHT22;19640;50.944;5.260;2023-08-24T04:03:56;18.80;99.90
33269;DHT22;19640;50.944;5.260;2023-08-24T04:06:23;18.90;99.90
33269;DHT22;19640;50.944;5.260;2023-08-24T04:08:49;19.10;99.90
33269;DHT22;19640;50.944;5.260;2023-08-24T04:11:15;19.20;99.90
33269;DHT22;19640;50.944;5.260;2023-08-24T04:13:40;19.30;99.90
33269;DHT22;19640;50.944;5.260;2023-08-24T04:16:06;19.40;99.90
33269;DHT22;19640;50.944;5.260;2023-08-24T04:18:32;19.40;99.90
33269;DHT22;19640;50.944;5.260;2023-08-24T04:20:58;19.30;99.90
33269;DHT22;19640;50.944;5.260;2023-08-24T04:23:24;19.20;99.90
33269;DHT22;19640;50.944;5.260;2023-08-24T04:25:53;19.10;99.90
33269;DHT22;19640;50.944;5.260;2023-08-24T04:28:20;19.10;99.90
33269;DHT22;19640;50.944;5.260;2023-08-24T04:30:56;19.10;99.90
33269;DHT22;19640;50.944;5.260;2023-08-24T04:33:22;19.20;99.90
33269;DHT22;19640;50.944;5.260;2023-08-24T04:35:49;19.20;99.90
33269;DHT22;19640;50.944;5.260;2023-08-24T04:38:15;19.20;99.90
33269;DHT22;19640;50.944;5.260;2023-08-24T04:40:52;19.10;99.90
33269;DHT22;19640;50.944;5.260;2023-08-24T04:43:20;19.10;99.90
33269;DHT22;19640;50.944;5.260;2023-08-24T04:45:47;19.30;99.90
33269;DHT22;19640;50.944;5.260;2023-08-24T04:48:21;19.20;99.90
33269;DHT22;19640;50.944;5.260;2023-08-24T04:50:47;19.20;99.90
33269;DHT22;19640;50.944;5.260;2023-08-24T04:53:16;19.30;99.90
33269;DHT22;19640;50.944;5.260;2023-08-24T04:55:42;19.20;99.90
33269;DHT22;19640;50.944;5.260;2023-08-24T04:58:09;19.20;99.90
33269;DHT22;19640;50.944;5.260;2023-08-24T05:00:35;19.30;99.90
33269;DHT22;19640;50.944;5.260;2023-08-24T05:03:04;19.30;99.90
33269;DHT22;19640;50.944;5.260;2023-08-24T05:05:34;19.20;99.90
33269;DHT22;19640;50.944;5.260;2023-08-24T05:08:01;19.10;99.90
33269;DHT22;19640;50.944;5.260;2023-08-24T05:10:31;19.10;99.90
33269;DHT22;19640;50.944;5.260;2023-08-24T05:12:57;19.10;99.90
33269;DHT22;19640;50.944;5.260;2023-08-24T05:15:22;19.10;99.90
33269;DHT22;19640;50.944;5.260;2023-08-24T05:17:48;19.10;99.90
33269;DHT22;19640;50.944;5.260;2023-08-24T05:20:14;19.10;99.90
33269;DHT22;19640;50.944;5.260;2023-08-24T05:22:40;19.10;99.90
33269;DHT22;19640;50.944;5.260;2023-08-24T05:25:06;19.10;99.90
33269;DHT22;19640;50.944;5.260;2023-08-24T05:27:32;19.10;99.90
33269;DHT22;19640;50.944;5.260;2023-08-24T05:29:58;19.00;99.90
33269;DHT22;19640;50.944;5.260;2023-08-24T05:32:24;19.00;99.90
33269;DHT22;19640;50.944;5.260;2023-08-24T05:34:50;19.10;99.90
33269;DHT22;19640;50.944;5.260;2023-08-24T05:37:16;19.10;99.90
33269;DHT22;19640;50.944;5.260;2023-08-24T05:39:42;19.10;99.90
33269;DHT22;19640;50.944;5.260;2023-08-24T05:42:09;19.10;99.90
33269;DHT22;19640;50.944;5.260;2023-08-24T05:44:35;19.20;99.90
33269;DHT22;19640;50.944;5.260;2023-08-24T05:47:00;19.30;99.90
33269;DHT22;19640;50.944;5.260;2023-08-24T05:49:26;19.30;99.90
33269;DHT22;19640;50.944;5.260;2023-08-24T05:51:52;19.30;99.90
33269;DHT22;19640;50.944;5.260;2023-08-24T05:54:18;19.40;99.90
33269;DHT22;19640;50.944;5.260;2023-08-24T05:56:47;19.50;99.90
33269;DHT22;19640;50.944;5.260;2023-08-24T05:59:14;19.60;99.90
33269;DHT22;19640;50.944;5.260;2023-08-24T06:01:40;19.80;99.90
33269;DHT22;19640;50.944;5.260;2023-08-24T06:04:07;19.80;99.90
33269;DHT22;19640;50.944;5.260;2023-08-24T06:06:33;20.00;99.90
33269;DHT22;19640;50.944;5.260;2023-08-24T06:08:59;20.10;99.90
33269;DHT22;19640;50.944;5.260;2023-08-24T06:11:24;20.20;99.90
33269;DHT22;19640;50.944;5.260;2023-08-24T06:13:50;20.30;99.90
33269;DHT22;19640;50.944;5.260;2023-08-24T06:16:19;20.40;99.90
33269;DHT22;19640;50.944;5.260;2023-08-24T06:18:45;20.50;99.90
33269;DHT22;19640;50.944;5.260;2023-08-24T06:21:11;20.50;99.90
33269;DHT22;19640;50.944;5.260;2023-08-24T06:23:37;20.50;99.90
33269;DHT22;19640;50.944;5.260;2023-08-24T06:26:03;20.60;99.90
33269;DHT22;19640;50.944;5.260;2023-08-24T06:28:30;20.70;99.90
33269;DHT22;19640;50.944;5.260;2023-08-24T06:30:56;20.80;99.90
33269;DHT22;19640;50.944;5.260;2023-08-24T06:33:27;20.90;99.90
33269;DHT22;19640;50.944;5.260;2023-08-24T06:35:54;21.00;99.90
33269;DHT22;19640;50.944;5.260;2023-08-24T06:38:19;21.00;99.90
33269;DHT22;19640;50.944;5.260;2023-08-24T06:40:45;21.10;99.90
33269;DHT22;19640;50.944;5.260;2023-08-24T06:43:11;21.20;99.90
33269;DHT22;19640;50.944;5.260;2023-08-24T06:45:36;21.30;99.90
33269;DHT22;19640;50.944;5.260;2023-08-24T06:48:02;21.40;99.90
33269;DHT22;19640;50.944;5.260;2023-08-24T06:50:28;21.60;99.90
33269;DHT22;19640;50.944;5.260;2023-08-24T06:52:54;21.60;99.90
33269;DHT22;19640;50.944;5.260;2023-08-24T06:55:19;21.70;99.90
33269;DHT22;19640;50.944;5.260;2023-08-24T06:57:48;21.80;99.90
33269;DHT22;19640;50.944;5.260;2023-08-24T07:00:14;21.90;99.90
33269;DHT22;19640;50.944;5.260;2023-08-24T07:02:40;22.10;99.90
33269;DHT22;19640;50.944;5.260;2023-08-24T07:05:06;22.40;99.90
33269;DHT22;19640;50.944;5.260;2023-08-24T07:07:34;22.80;99.90
33269;DHT22;19640;50.944;5.260;2023-08-24T07:10:00;23.10;99.90
33269;DHT22;19640;50.944;5.260;2023-08-24T07:12:26;23.50;99.90
33269;DHT22;19640;50.944;5.260;2023-08-24T07:14:52;23.90;99.90
33269;DHT22;19640;50.944;5.260;2023-08-24T07:17:17;24.00;99.90
33269;DHT22;19640;50.944;5.260;2023-08-24T07:19:43;24.10;99.90
33269;DHT22;19640;50.944;5.260;2023-08-24T07:22:09;24.40;99.90
33269;DHT22;19640;50.944;5.260;2023-08-24T07:24:35;24.70;99.90
33269;DHT22;19640;50.944;5.260;2023-08-24T07:27:02;25.30;99.90
33269;DHT22;19640;50.944;5.260;2023-08-24T07:29:29;25.80;99.90
33269;DHT22;19640;50.944;5.260;2023-08-24T07:31:54;26.80;99.90
33269;DHT22;19640;50.944;5.260;2023-08-24T07:34:20;27.70;99.90
33269;DHT22;19640;50.944;5.260;2023-08-24T07:36:48;28.10;99.90
33269;DHT22;19640;50.944;5.260;2023-08-24T07:39:14;28.20;99.90
33269;DHT22;19640;50.944;5.260;2023-08-24T07:41:44;28.60;99.90
33269;DHT22;19640;50.944;5.260;2023-08-24T07:44:10;28.70;99.90
33269;DHT22;19640;50.944;5.260;2023-08-24T07:46:38;29.20;99.90
33269;DHT22;19640;50.944;5.260;2023-08-24T07:49:03;29.00;99.90
33269;DHT22;19640;50.944;5.260;2023-08-24T07:51:29;28.90;99.90
33269;DHT22;19640;50.944;5.260;2023-08-24T07:53:55;29.10;99.90
33269;DHT22;19640;50.944;5.260;2023-08-24T07:56:20;29.20;99.90
33269;DHT22;19640;50.944;5.260;2023-08-24T07:58:48;29.60;99.90
33269;DHT22;19640;50.944;5.260;2023-08-24T08:01:13;29.20;99.90
33269;DHT22;19640;50.944;5.260;2023-08-24T08:03:39;28.90;99.90
33269;DHT22;19640;50.944;5.260;2023-08-24T08:06:05;28.70;99.90
33269;DHT22;19640;50.944;5.260;2023-08-24T08:08:31;28.10;99.90
33269;DHT22;19640;50.944;5.260;2023-08-24T08:11:00;27.80;99.90
33269;DHT22;19640;50.944;5.260;2023-08-24T08:13:27;27.60;99.90
33269;DHT22;19640;50.944;5.260;2023-08-24T08:15:53;27.50;99.90
33269;DHT22;19640;50.944;5.260;2023-08-24T08:18:19;26.90;99.90
33269;DHT22;19640;50.944;5.260;2023-08-24T08:20:45;26.80;99.90
33269;DHT22;19640;50.944;5.260;2023-08-24T08:23:11;26.50;99.90
33269;DHT22;19640;50.944;5.260;2023-08-24T08:25:36;26.40;99.90
33269;DHT22;19640;50.944;5.260;2023-08-24T08:28:03;26.40;99.90
33269;DHT22;19640;50.944;5.260;2023-08-24T08:30:29;26.50;99.90
33269;DHT22;19640;50.944;5.260;2023-08-24T08:32:54;26.40;99.90
33269;DHT22;19640;50.944;5.260;2023-08-24T08:35:22;26.30;99.90
33269;DHT22;19640;50.944;5.260;2023-08-24T08:37:48;26.20;99.90
33269;DHT22;19640;50.944;5.260;2023-08-24T08:40:16;26.10;99.90
33269;DHT22;19640;50.944;5.260;2023-08-24T08:42:42;26.10;99.90
33269;DHT22;19640;50.944;5.260;2023-08-24T08:45:09;26.20;99.90
33269;DHT22;19640;50.944;5.260;2023-08-24T08:47:35;26.00;99.90
33269;DHT22;19640;50.944;5.260;2023-08-24T08:50:03;26.10;99.90
33269;DHT22;19640;50.944;5.260;2023-08-24T08:52:29;25.90;99.90
33269;DHT22;19640;50.944;5.260;2023-08-24T08:54:55;25.90;99.90
33269;DHT22;19640;50.944;5.260;2023-08-24T08:57:22;26.00;99.90
33269;DHT22;19640;50.944;5.260;2023-08-24T08:59:49;26.20;99.90
33269;DHT22;19640;50.944;5.260;2023-08-24T09:02:19;26.30;99.90
33269;DHT22;19640;50.944;5.260;2023-08-24T09:04:45;26.40;99.90
33269;DHT22;19640;50.944;5.260;2023-08-24T09:07:15;26.30;99.90
33269;DHT22;19640;50.944;5.260;2023-08-24T09:09:41;26.20;99.90
33269;DHT22;19640;50.944;5.260;2023-08-24T09:12:08;26.10;99.90
33269;DHT22;19640;50.944;5.260;2023-08-24T09:14:34;26.10;99.90
33269;DHT22;19640;50.944;5.260;2023-08-24T09:17:00;26.20;99.90
33269;DHT22;19640;50.944;5.260;2023-08-24T09:19:30;26.30;99.90
33269;DHT22;19640;50.944;5.260;2023-08-24T09:21:57;26.30;99.90
33269;DHT22;19640;50.944;5.260;2023-08-24T09:24:36;26.20;99.90
33269;DHT22;19640;50.944;5.260;2023-08-24T09:27:16;26.40;99.90
33269;DHT22;19640;50.944;5.260;2023-08-24T09:29:42;26.50;99.90
33269;DHT22;19640;50.944;5.260;2023-08-24T09:32:08;26.40;99.90
33269;DHT22;19640;50.944;5.260;2023-08-24T09:34:36;26.70;99.90
33269;DHT22;19640;50.944;5.260;2023-08-24T09:37:02;26.60;99.90
33269;DHT22;19640;50.944;5.260;2023-08-24T09:39:29;26.70;99.90
33269;DHT22;19640;50.944;5.260;2023-08-24T09:42:00;26.80;99.90
33269;DHT22;19640;50.944;5.260;2023-08-24T09:44:28;26.90;99.90
33269;DHT22;19640;50.944;5.260;2023-08-24T09:46:54;26.90;99.90
33269;DHT22;19640;50.944;5.260;2023-08-24T09:49:20;26.80;99.90
33269;DHT22;19640;50.944;5.260;2023-08-24T09:51:47;26.80;99.90
33269;DHT22;19640;50.944;5.260;2023-08-24T09:54:15;26.80;99.90
33269;DHT22;19640;50.944;5.260;2023-08-24T09:56:42;26.80;99.90
33269;DHT22;19640;50.944;5.260;2023-08-24T09:59:13;26.80;99.90
33269;DHT22;19640;50.944;5.260;2023-08-24T10:01:43;26.70;99.90
33269;DHT22;19640;50.944;5.260;2023-08-24T10:04:09;26.70;99.90
33269;DHT22;19640;50.944;5.260;2023-08-24T10:06:39;26.70;99.90
33269;DHT22;19640;50.944;5.260;2023-08-24T10:09:08;26.70;99.90
33269;DHT22;19640;50.944;5.260;2023-08-24T10:11:39;26.70;99.90
33269;DHT22;19640;50.944;5.260;2023-08-24T10:16:59;26.30;99.90
33269;DHT22;19640;50.944;5.260;2023-08-24T10:19:25;26.20;99.90
33269;DHT22;19640;50.944;5.260;2023-08-24T10:21:53;25.90;99.90
33269;DHT22;19640;50.944;5.260;2023-08-24T10:24:22;25.50;99.90
33269;DHT22;19640;50.944;5.260;2023-08-24T10:26:48;25.20;99.90
33269;DHT22;19640;50.944;5.260;2023-08-24T10:29:16;25.10;99.90
33269;DHT22;19640;50.944;5.260;2023-08-24T10:31:43;25.00;99.90
33269;DHT22;19640;50.944;5.260;2023-08-24T10:34:09;24.70;99.90
33269;DHT22;19640;50.944;5.260;2023-08-24T10:36:38;24.30;99.90
33269;DHT22;19640;50.944;5.260;2023-08-24T10:39:05;24.10;99.90
33269;DHT22;19640;50.944;5.260;2023-08-24T10:41:47;24.00;99.90
33269;DHT22;19640;50.944;5.260;2023-08-24T10:44:19;23.90;99.90
33269;DHT22;19640;50.944;5.260;2023-08-24T10:47:05;23.70;99.90
33269;DHT22;19640;50.944;5.260;2023-08-24T10:49:32;23.60;99.90
33269;DHT22;19640;50.944;5.260;2023-08-24T10:51:59;23.60;99.90
33269;DHT22;19640;50.944;5.260;2023-08-24T10:54:46;23.30;99.90
33269;DHT22;19640;50.944;5.260;2023-08-24T10:57:22;23.40;99.90
33269;DHT22;19640;50.944;5.260;2023-08-24T11:00:09;23.30;99.90
33269;DHT22;19640;50.944;5.260;2023-08-24T11:02:45;23.40;99.90
33269;DHT22;19640;50.944;5.260;2023-08-24T11:05:20;23.40;99.90
33269;DHT22;19640;50.944;5.260;2023-08-24T11:08:04;23.30;99.90
33269;DHT22;19640;50.944;5.260;2023-08-24T11:13:10;23.20;99.90
33269;DHT22;19640;50.944;5.260;2023-08-24T11:15:44;23.10;99.90
33269;DHT22;19640;50.944;5.260;2023-08-24T11:20:45;22.50;99.90
33269;DHT22;19640;50.944;5.260;2023-08-24T11:23:12;22.50;99.90
33269;DHT22;19640;50.944;5.260;2023-08-24T11:25:39;22.40;99.90
33269;DHT22;19640;50.944;5.260;2023-08-24T11:28:05;22.40;99.90
33269;DHT22;19640;50.944;5.260;2023-08-24T11:30:31;22.40;99.90
33269;DHT22;19640;50.944;5.260;2023-08-24T11:32:58;22.40;99.90
33269;DHT22;19640;50.944;5.260;2023-08-24T11:35:25;22.40;99.90
33269;DHT22;19640;50.944;5.260;2023-08-24T11:37:52;22.40;99.90
33269;DHT22;19640;50.944;5.260;2023-08-24T11:40:18;22.60;99.90
33269;DHT22;19640;50.944;5.260;2023-08-24T11:42:54;22.90;99.90
33269;DHT22;19640;50.944;5.260;2023-08-24T11:45:21;23.00;99.90
33269;DHT22;19640;50.944;5.260;2023-08-24T11:47:48;23.20;99.90
33269;DHT22;19640;50.944;5.260;2023-08-24T11:50:14;23.30;99.90
33269;DHT22;19640;50.944;5.260;2023-08-24T11:52:40;23.20;99.90
33269;DHT22;19640;50.944;5.260;2023-08-24T11:55:06;23.30;99.90
33269;DHT22;19640;50.944;5.260;2023-08-24T11:57:34;23.50;99.90
33269;DHT22;19640;50.944;5.260;2023-08-24T12:00:00;23.80;99.90
33269;DHT22;19640;50.944;5.260;2023-08-24T12:02:26;24.10;99.90
33269;DHT22;19640;50.944;5.260;2023-08-24T12:04:52;24.30;99.90
33269;DHT22;19640;50.944;5.260;2023-08-24T12:07:20;24.60;99.90
33269;DHT22;19640;50.944;5.260;2023-08-24T12:09:46;24.60;99.90
33269;DHT22;19640;50.944;5.260;2023-08-24T12:12:16;24.50;99.90
33269;DHT22;19640;50.944;5.260;2023-08-24T12:14:46;24.70;99.90
33269;DHT22;19640;50.944;5.260;2023-08-24T12:17:13;24.60;99.90
33269;DHT22;19640;50.944;5.260;2023-08-24T12:19:55;24.70;99.90
33269;DHT22;19640;50.944;5.260;2023-08-24T12:22:21;24.80;99.90
33269;DHT22;19640;50.944;5.260;2023-08-24T12:24:47;24.80;99.90
33269;DHT22;19640;50.944;5.260;2023-08-24T12:29:48;24.90;99.90
33269;DHT22;19640;50.944;5.260;2023-08-24T12:32:14;24.70;99.90
33269;DHT22;19640;50.944;5.260;2023-08-24T12:34:49;24.60;99.90
33269;DHT22;19640;50.944;5.260;2023-08-24T12:37:17;24.70;99.90
33269;DHT22;19640;50.944;5.260;2023-08-24T12:39:43;24.60;99.90
33269;DHT22;19640;50.944;5.260;2023-08-24T12:42:08;24.40;99.90
33269;DHT22;19640;50.944;5.260;2023-08-24T12:44:34;24.50;99.90
33269;DHT22;19640;50.944;5.260;2023-08-24T12:47:02;24.40;99.90
33269;DHT22;19640;50.944;5.260;2023-08-24T12:49:28;24.10;99.90
33269;DHT22;19640;50.944;5.260;2023-08-24T12:51:54;23.90;99.90
33269;DHT22;19640;50.944;5.260;2023-08-24T12:54:20;23.80;99.90
33269;DHT22;19640;50.944;5.260;2023-08-24T12:56:46;23.70;99.90
33269;DHT22;19640;50.944;5.260;2023-08-24T12:59:11;23.60;99.90
33269;DHT22;19640;50.944;5.260;2023-08-24T13:01:37;23.60;99.90
33269;DHT22;19640;50.944;5.260;2023-08-24T13:04:04;23.50;99.90
33269;DHT22;19640;50.944;5.260;2023-08-24T13:06:30;23.60;99.90
33269;DHT22;19640;50.944;5.260;2023-08-24T13:08:56;23.50;99.90
33269;DHT22;19640;50.944;5.260;2023-08-24T13:11:22;23.50;99.90
33269;DHT22;19640;50.944;5.260;2023-08-24T13:13:48;23.40;99.90
33269;DHT22;19640;50.944;5.260;2023-08-24T13:16:14;23.30;99.90
33269;DHT22;19640;50.944;5.260;2023-08-24T13:18:41;23.30;99.90
33269;DHT22;19640;50.944;5.260;2023-08-24T13:21:07;23.30;99.90
33269;DHT22;19640;50.944;5.260;2023-08-24T13:23:32;23.20;99.90
33269;DHT22;19640;50.944;5.260;2023-08-24T13:25:59;23.00;99.90
33269;DHT22;19640;50.944;5.260;2023-08-24T13:28:25;22.90;99.90
33269;DHT22;19640;50.944;5.260;2023-08-24T13:30:50;22.90;99.90
33269;DHT22;19640;50.944;5.260;2023-08-24T13:33:16;22.70;99.90
33269;DHT22;19640;50.944;5.260;2023-08-24T13:35:43;22.60;99.90
33269;DHT22;19640;50.944;5.260;2023-08-24T13:38:09;22.50;99.90
33269;DHT22;19640;50.944;5.260;2023-08-24T13:40:35;22.40;99.90
33269;DHT22;19640;50.944;5.260;2023-08-24T13:43:00;22.20;99.90
33269;DHT22;19640;50.944;5.260;2023-08-24T13:45:26;22.00;99.90
33269;DHT22;19640;50.944;5.260;2023-08-24T13:47:52;22.00;99.90
33269;DHT22;19640;50.944;5.260;2023-08-24T13:50:17;21.90;99.90
33269;DHT22;19640;50.944;5.260;2023-08-24T13:52:44;21.70;99.90
33269;DHT22;19640;50.944;5.260;2023-08-24T13:55:09;21.70;99.90
33269;DHT22;19640;50.944;5.260;2023-08-24T13:57:35;21.50;99.90
33269;DHT22;19640;50.944;5.260;2023-08-24T14:00:01;21.30;99.90
33269;DHT22;19640;50.944;5.260;2023-08-24T14:02:28;21.20;99.90
33269;DHT22;19640;50.944;5.260;2023-08-24T14:04:54;21.10;99.90
33269;DHT22;19640;50.944;5.260;2023-08-24T14:07:20;21.00;99.90
33269;DHT22;19640;50.944;5.260;2023-08-24T14:09:46;21.00;99.90
33269;DHT22;19640;50.944;5.260;2023-08-24T14:12:12;20.90;99.90
33269;DHT22;19640;50.944;5.260;2023-08-24T14:14:37;20.90;99.90
33269;DHT22;19640;50.944;5.260;2023-08-24T14:17:03;20.80;99.90
33269;DHT22;19640;50.944;5.260;2023-08-24T14:19:29;20.80;99.90
33269;DHT22;19640;50.944;5.260;2023-08-24T14:21:54;20.90;99.90
33269;DHT22;19640;50.944;5.260;2023-08-24T14:24:21;20.90;99.90
33269;DHT22;19640;50.944;5.260;2023-08-24T14:26:47;20.90;99.90
33269;DHT22;19640;50.944;5.260;2023-08-24T14:29:13;20.90;99.90
33269;DHT22;19640;50.944;5.260;2023-08-24T14:31:40;20.90;99.90
33269;DHT22;19640;50.944;5.260;2023-08-24T14:34:06;20.80;99.90
33269;DHT22;19640;50.944;5.260;2023-08-24T14:36:32;21.00;99.90
33269;DHT22;19640;50.944;5.260;2023-08-24T14:38:58;21.10;99.90
33269;DHT22;19640;50.944;5.260;2023-08-24T14:41:24;21.00;99.90
33269;DHT22;19640;50.944;5.260;2023-08-24T14:43:50;21.10;99.90
33269;DHT22;19640;50.944;5.260;2023-08-24T14:46:16;21.10;99.90
33269;DHT22;19640;50.944;5.260;2023-08-24T14:48:42;21.20;99.90
33269;DHT22;19640;50.944;5.260;2023-08-24T14:51:07;21.20;99.90
33269;DHT22;19640;50.944;5.260;2023-08-24T14:53:33;21.20;99.90
33269;DHT22;19640;50.944;5.260;2023-08-24T14:55:59;21.20;99.90
33269;DHT22;19640;50.944;5.260;2023-08-24T14:58:26;21.20;99.90
33269;DHT22;19640;50.944;5.260;2023-08-24T15:00:55;21.10;99.90
33269;DHT22;19640;50.944;5.260;2023-08-24T15:03:23;21.00;99.90
33269;DHT22;19640;50.944;5.260;2023-08-24T15:06:02;21.00;99.90
33269;DHT22;19640;50.944;5.260;2023-08-24T15:08:33;21.00;99.90
33269;DHT22;19640;50.944;5.260;2023-08-24T15:11:00;21.10;99.90
33269;DHT22;19640;50.944;5.260;2023-08-24T15:13:28;21.20;99.90
33269;DHT22;19640;50.944;5.260;2023-08-24T15:15:56;21.30;99.90
33269;DHT22;19640;50.944;5.260;2023-08-24T15:18:26;21.50;99.90
33269;DHT22;19640;50.944;5.260;2023-08-24T15:20:51;21.60;99.90
33269;DHT22;19640;50.944;5.260;2023-08-24T15:23:35;21.70;99.90
33269;DHT22;19640;50.944;5.260;2023-08-24T15:26:01;21.80;99.90
33269;DHT22;19640;50.944;5.260;2023-08-24T15:28:35;21.80;99.90
33269;DHT22;19640;50.944;5.260;2023-08-24T15:31:01;21.80;99.90
33269;DHT22;19640;50.944;5.260;2023-08-24T15:33:27;22.00;99.90
33269;DHT22;19640;50.944;5.260;2023-08-24T15:35:53;22.10;99.90
33269;DHT22;19640;50.944;5.260;2023-08-24T15:38:18;22.10;99.90
33269;DHT22;19640;50.944;5.260;2023-08-24T15:40:52;22.20;99.90
33269;DHT22;19640;50.944;5.260;2023-08-24T15:43:18;22.10;99.90
33269;DHT22;19640;50.944;5.260;2023-08-24T15:45:44;22.10;99.90
33269;DHT22;19640;50.944;5.260;2023-08-24T15:48:09;22.10;99.90
33269;DHT22;19640;50.944;5.260;2023-08-24T15:50:35;22.00;99.90